createdAt,value
2019-03-01T00:01:17.193Z,8.00
2019-03-01T00:03:51.305Z,8.53
2019-03-01T00:06:35.858Z,8.30
2019-03-01T00:09:31.548Z,9.37
2019-03-01T00:12:10.916Z,8.53
2019-03-01T00:18:06.907Z,9.40
2019-03-01T00:21:12.876Z,11.70
2019-03-01T00:24:10.249Z,10.67
2019-03-01T00:27:04.138Z,10.33
2019-03-01T00:30:10.073Z,10.57
2019-03-01T00:33:02.853Z,9.80
2019-03-01T00:36:18.608Z,9.47
2019-03-01T00:39:28.157Z,8.13
2019-03-01T00:42:13.504Z,8.20
2019-03-01T00:44:44.163Z,6.97
2019-03-01T00:47:13.204Z,6.23
2019-03-01T00:49:42.145Z,5.87
2019-03-01T00:52:11.684Z,4.93
2019-03-01T00:54:40.729Z,5.57
2019-03-01T00:57:09.657Z,5.40
2019-03-01T00:59:38.663Z,4.57
2019-03-01T01:02:07.672Z,4.60
2019-03-01T01:04:36.692Z,9.67
2019-03-01T01:07:05.688Z,3.73
2019-03-01T01:09:34.626Z,3.77
2019-03-01T01:12:03.602Z,4.97
2019-03-01T01:14:32.588Z,3.80
2019-03-01T01:17:01.562Z,3.47
2019-03-01T01:19:30.412Z,3.60
2019-03-01T01:21:59.393Z,4.37
2019-03-01T01:24:28.219Z,3.27
2019-03-01T01:26:57.075Z,3.63
2019-03-01T01:29:25.940Z,3.60
2019-03-01T01:31:54.799Z,3.40
2019-03-01T01:34:23.704Z,3.73
2019-03-01T01:36:52.692Z,2.70
2019-03-01T01:39:23.139Z,2.67
2019-03-01T01:41:52.245Z,3.10
2019-03-01T01:44:21.192Z,3.50
2019-03-01T01:46:50.027Z,2.77
2019-03-01T01:49:18.906Z,3.23
2019-03-01T01:51:47.850Z,3.20
2019-03-01T01:54:16.824Z,2.83
2019-03-01T01:56:45.692Z,3.20
2019-03-01T01:59:14.730Z,2.90
2019-03-01T02:01:43.716Z,2.90
2019-03-01T02:04:12.660Z,2.97
2019-03-01T02:06:41.600Z,2.90
2019-03-01T02:09:22.480Z,3.30
2019-03-01T02:11:51.586Z,3.40
2019-03-01T02:14:20.603Z,3.13
2019-03-01T02:16:49.520Z,2.57
2019-03-01T02:19:18.534Z,2.80
2019-03-01T02:21:47.558Z,2.50
2019-03-01T02:24:16.588Z,2.80
2019-03-01T02:26:45.523Z,2.67
2019-03-01T02:29:14.355Z,2.97
2019-03-01T02:31:54.893Z,2.70
2019-03-01T02:34:23.737Z,2.57
2019-03-01T02:36:52.707Z,3.00
2019-03-01T02:39:21.622Z,2.30
2019-03-01T02:41:50.541Z,3.10
2019-03-01T02:44:19.459Z,2.77
2019-03-01T02:46:48.295Z,2.37
2019-03-01T02:49:17.226Z,2.90
2019-03-01T02:51:46.088Z,2.67
2019-03-01T02:54:15.066Z,2.33
2019-03-01T02:56:43.949Z,3.07
2019-03-01T02:59:12.767Z,2.70
2019-03-01T03:01:41.609Z,2.80
2019-03-01T03:04:10.443Z,2.70
2019-03-01T03:06:44.882Z,2.63
2019-03-01T03:09:13.780Z,2.77
2019-03-01T03:11:42.768Z,2.63
2019-03-01T03:14:11.618Z,2.97
2019-03-01T03:16:40.758Z,2.70
2019-03-01T03:19:09.621Z,2.90
2019-03-01T03:21:38.490Z,2.50
2019-03-01T03:24:07.668Z,2.77
2019-03-01T03:26:36.641Z,2.33
2019-03-01T03:29:05.710Z,2.87
2019-03-01T03:31:35.040Z,2.43
2019-03-01T03:34:04.147Z,2.83
2019-03-01T03:36:33.112Z,3.20
2019-03-01T03:39:02.154Z,2.53
2019-03-01T03:41:31.420Z,2.30
2019-03-01T03:44:00.474Z,2.60
2019-03-01T03:46:29.900Z,2.80
2019-03-01T03:48:58.892Z,2.63
2019-03-01T03:51:27.822Z,2.50
2019-03-01T03:53:56.863Z,3.63
2019-03-01T03:56:25.746Z,2.40
2019-03-01T03:58:54.645Z,2.87
2019-03-01T04:01:23.640Z,2.97
2019-03-01T04:03:52.629Z,2.63
2019-03-01T04:06:22.137Z,2.30
2019-03-01T04:08:50.957Z,2.73
2019-03-01T04:11:19.919Z,2.60
2019-03-01T04:13:48.797Z,2.50
2019-03-01T04:16:17.726Z,2.93
2019-03-01T04:18:46.724Z,2.50
2019-03-01T04:21:15.759Z,2.87
2019-03-01T04:23:44.607Z,2.97
2019-03-01T04:26:13.564Z,2.83
2019-03-01T04:28:42.577Z,2.80
2019-03-01T04:31:11.413Z,2.60
2019-03-01T04:33:40.260Z,2.50
2019-03-01T04:36:09.198Z,2.13
2019-03-01T04:38:38.027Z,2.60
2019-03-01T04:41:06.859Z,2.33
2019-03-01T04:43:35.772Z,3.00
2019-03-01T04:46:04.630Z,2.50
2019-03-01T04:48:33.462Z,2.27
2019-03-01T04:51:02.347Z,2.27
2019-03-01T04:53:31.188Z,2.63
2019-03-01T04:56:00.032Z,1.90
2019-03-01T04:58:29.090Z,1.90
2019-03-01T05:00:58.245Z,2.00
2019-03-01T05:03:27.110Z,2.10
2019-03-01T05:05:56.113Z,1.80
2019-03-01T05:08:25.122Z,2.63
2019-03-01T05:10:54.036Z,2.10
2019-03-01T05:13:23.020Z,2.20
2019-03-01T05:15:51.957Z,2.10
2019-03-01T05:18:20.815Z,1.87
2019-03-01T05:20:49.689Z,1.80
2019-03-01T05:23:18.527Z,1.80
2019-03-01T05:25:47.773Z,2.10
2019-03-01T05:28:16.789Z,1.90
2019-03-01T05:30:45.631Z,2.53
2019-03-01T05:33:14.544Z,2.00
2019-03-01T05:35:43.379Z,1.90
2019-03-01T05:38:21.277Z,2.00
2019-03-01T05:40:42.945Z,1.77
2019-03-01T05:43:11.889Z,1.70
2019-03-01T05:45:40.818Z,2.40
2019-03-01T05:48:09.764Z,1.90
2019-03-01T05:50:38.576Z,2.07
2019-03-01T05:53:07.482Z,2.27
2019-03-01T05:55:36.428Z,2.20
2019-03-01T05:58:27.346Z,2.07
2019-03-01T06:00:58.230Z,2.50
2019-03-01T06:03:52.837Z,2.33
2019-03-01T06:06:26.950Z,2.27
2019-03-01T06:09:49.180Z,2.07
2019-03-01T06:13:08.125Z,2.40
2019-03-01T06:16:08.782Z,2.30
2019-03-01T06:19:24.990Z,2.30
2019-03-01T06:22:21.055Z,2.53
2019-03-01T06:25:12.895Z,2.13
2019-03-01T06:28:21.871Z,2.13
2019-03-01T06:31:28.028Z,2.50
2019-03-01T06:34:18.560Z,2.60
2019-03-01T06:37:10.836Z,2.60
2019-03-01T06:40:15.175Z,2.40
2019-03-01T06:43:02.656Z,2.20
2019-03-01T06:46:18.801Z,2.50
2019-03-01T06:49:01.369Z,2.13
2019-03-01T06:51:32.701Z,2.93
2019-03-01T06:54:01.706Z,2.30
2019-03-01T06:56:30.639Z,2.30
2019-03-01T06:59:04.764Z,2.60
2019-03-01T07:01:39.305Z,2.30
2019-03-01T07:04:12.784Z,2.27
2019-03-01T07:06:41.818Z,2.10
2019-03-01T07:09:10.784Z,2.70
2019-03-01T07:11:39.839Z,2.43
2019-03-01T07:14:08.894Z,2.33
2019-03-01T07:16:37.935Z,2.53
2019-03-01T07:19:12.278Z,2.13
2019-03-01T07:21:41.218Z,2.47
2019-03-01T07:24:10.114Z,2.60
2019-03-01T07:26:38.993Z,2.67
2019-03-01T07:29:11.397Z,2.80
2019-03-01T07:31:40.270Z,2.13
2019-03-01T07:34:09.325Z,2.60
2019-03-01T07:36:38.241Z,2.83
2019-03-01T07:39:09.553Z,2.37
2019-03-01T07:41:38.473Z,2.30
2019-03-01T07:44:07.500Z,2.50
2019-03-01T07:46:36.412Z,2.60
2019-03-01T07:49:05.424Z,2.40
2019-03-01T07:51:35.918Z,3.03
2019-03-01T07:54:05.184Z,2.50
2019-03-01T07:56:36.954Z,2.70
2019-03-01T07:59:04.710Z,2.60
2019-03-01T08:01:33.633Z,2.80
2019-03-01T08:04:02.603Z,2.47
2019-03-01T08:06:31.472Z,2.73
2019-03-01T08:09:00.286Z,2.27
2019-03-01T08:11:31.821Z,3.27
2019-03-01T08:13:59.859Z,2.50
2019-03-01T08:16:28.671Z,2.70
2019-03-01T08:18:57.554Z,1.97
2019-03-01T08:21:26.384Z,4.07
2019-03-01T08:23:55.244Z,2.30
2019-03-01T08:26:24.220Z,2.40
2019-03-01T08:28:54.698Z,2.27
2019-03-01T08:31:23.642Z,1.77
2019-03-01T08:33:52.464Z,2.17
2019-03-01T08:36:21.397Z,3.20
2019-03-01T08:38:50.343Z,2.30
2019-03-01T08:41:21.536Z,2.17
2019-03-01T08:43:51.980Z,1.90
2019-03-01T08:46:20.674Z,2.27
2019-03-01T08:48:49.581Z,1.87
2019-03-01T08:51:18.949Z,1.97
2019-03-01T08:53:48.357Z,2.07
2019-03-01T08:56:25.809Z,1.80
2019-03-01T08:58:49.206Z,1.83
2019-03-01T09:01:18.361Z,1.70
2019-03-01T09:03:54.507Z,1.80
2019-03-01T09:06:23.416Z,1.90
2019-03-01T09:08:52.336Z,1.90
2019-03-01T09:11:21.174Z,1.90
2019-03-01T09:13:50.039Z,1.70
2019-03-01T09:16:19.029Z,2.57
2019-03-01T09:18:50.100Z,2.50
2019-03-01T09:21:18.512Z,2.50
2019-03-01T09:23:47.861Z,2.37
2019-03-01T09:26:20.008Z,1.90
2019-03-01T09:28:48.866Z,1.87
2019-03-01T09:31:17.844Z,1.50
2019-03-01T09:33:46.859Z,2.07
2019-03-01T09:36:25.449Z,2.17
2019-03-01T09:38:54.288Z,1.50
2019-03-01T09:41:23.349Z,1.90
2019-03-01T09:43:52.306Z,1.53
2019-03-01T09:46:24.781Z,1.60
2019-03-01T09:48:52.928Z,1.27
2019-03-01T09:51:21.839Z,1.60
2019-03-01T09:53:50.911Z,1.57
2019-03-01T10:54:34.662Z,0.77
2019-03-01T10:57:03.561Z,0.90
2019-03-01T10:59:32.568Z,1.20
2019-03-01T11:02:01.502Z,0.60
2019-03-01T11:04:30.357Z,0.87
2019-03-01T11:07:00.479Z,0.80
2019-03-01T11:09:29.345Z,3.10
2019-03-01T11:11:59.385Z,1.70
2019-03-01T11:14:28.283Z,1.47
2019-03-01T11:16:57.155Z,1.40
2019-03-01T11:19:26.116Z,1.40
2019-03-01T11:21:55.134Z,1.30
2019-03-01T11:24:24.004Z,1.30
2019-03-01T11:26:53.013Z,1.47
2019-03-01T11:29:22.041Z,1.43
2019-03-01T11:31:50.973Z,1.80
2019-03-01T11:34:19.900Z,1.53
2019-03-01T11:36:48.946Z,1.60
2019-03-01T11:39:18.546Z,1.20
2019-03-01T11:41:47.546Z,1.30
2019-03-01T11:44:16.417Z,1.40
2019-03-01T11:46:45.367Z,1.23
2019-03-01T11:49:14.286Z,1.30
2019-03-01T11:51:43.210Z,1.40
2019-03-01T11:54:12.198Z,1.83
2019-03-01T11:56:41.054Z,1.50
2019-03-01T11:59:09.990Z,1.20
2019-03-01T12:01:38.991Z,2.13
2019-03-01T12:04:07.841Z,2.43
2019-03-01T12:06:36.680Z,0.80
2019-03-01T12:09:06.532Z,1.80
2019-03-01T12:11:35.390Z,1.17
2019-03-01T12:14:04.335Z,1.00
2019-03-01T12:16:33.184Z,0.80
2019-03-01T12:19:02.128Z,1.13
2019-03-01T12:21:30.985Z,0.97
2019-03-01T12:23:59.837Z,0.80
2019-03-01T12:26:29.109Z,0.90
2019-03-01T12:28:58.037Z,1.50
2019-03-01T12:31:26.876Z,0.73
2019-03-01T12:33:55.732Z,1.77
2019-03-01T12:36:24.727Z,2.00
2019-03-01T12:38:53.615Z,1.37
2019-03-01T12:41:22.554Z,1.40
2019-03-01T12:43:51.577Z,1.40
2019-03-01T12:46:20.443Z,1.23
2019-03-01T12:48:49.502Z,1.17
2019-03-01T12:51:18.343Z,1.37
2019-03-01T12:53:47.193Z,1.30
2019-03-01T12:56:16.373Z,1.27
2019-03-01T12:58:45.219Z,0.90
2019-03-01T13:01:14.183Z,0.73
2019-03-01T13:03:43.937Z,0.80
2019-03-01T13:06:13.557Z,1.10
2019-03-01T13:08:42.465Z,0.77
2019-03-01T13:11:12.554Z,0.80
2019-03-01T13:13:42.168Z,1.10
2019-03-01T13:16:11.235Z,1.10
2019-03-01T13:18:40.135Z,1.13
2019-03-01T13:21:09.611Z,1.30
2019-03-01T13:23:40.423Z,1.10
2019-03-01T13:26:11.785Z,1.07
2019-03-01T13:28:43.911Z,0.93
2019-03-01T13:31:12.254Z,1.27
2019-03-01T13:33:41.404Z,1.17
2019-03-01T13:36:13.250Z,1.30
2019-03-01T13:38:42.004Z,1.47
2019-03-01T13:41:11.057Z,1.50
2019-03-01T13:43:40.064Z,0.93
2019-03-01T13:46:09.106Z,1.37
2019-03-01T13:48:37.974Z,1.10
2019-03-01T13:51:07.008Z,1.20
2019-03-01T13:53:35.948Z,1.20
2019-03-01T13:56:04.963Z,1.40
2019-03-01T13:58:33.837Z,0.90
2019-03-01T14:01:02.752Z,1.13
2019-03-01T14:03:31.631Z,1.10
2019-03-01T14:06:02.142Z,1.27
2019-03-01T14:08:31.440Z,1.07
2019-03-01T14:11:00.398Z,1.27
2019-03-01T14:13:29.401Z,1.33
2019-03-01T14:15:58.450Z,1.30
2019-03-01T14:18:27.486Z,1.57
2019-03-01T14:20:57.931Z,1.10
2019-03-01T14:23:27.214Z,2.30
2019-03-01T14:25:56.208Z,1.63
2019-03-01T14:28:25.121Z,1.60
2019-03-01T14:30:54.127Z,1.60
2019-03-01T14:33:23.160Z,1.17
2019-03-01T14:35:52.053Z,1.63
2019-03-01T14:38:20.934Z,2.37
2019-03-01T14:40:49.851Z,1.67
2019-03-01T14:43:20.198Z,1.40
2019-03-01T14:45:49.476Z,1.30
2019-03-01T14:48:18.494Z,1.10
2019-03-01T14:50:49.009Z,1.20
2019-03-01T14:53:18.017Z,1.00
2019-03-01T14:55:50.512Z,1.23
2019-03-01T14:58:23.556Z,1.30
2019-03-01T15:01:02.630Z,1.53
2019-03-01T15:03:34.370Z,1.40
2019-03-01T15:06:03.627Z,1.33
2019-03-01T15:08:32.734Z,0.90
2019-03-01T15:11:07.697Z,1.40
2019-03-01T15:13:35.778Z,1.20
2019-03-01T15:16:06.063Z,1.40
2019-03-01T15:18:35.636Z,1.20
2019-03-01T15:21:05.174Z,1.50
2019-03-01T15:23:34.170Z,1.17
2019-03-01T15:26:03.360Z,1.60
2019-03-01T15:28:32.417Z,1.70
2019-03-01T15:31:01.446Z,1.47
2019-03-01T15:33:30.340Z,1.70
2019-03-01T15:35:59.279Z,1.40
2019-03-01T15:38:28.949Z,2.10
2019-03-01T15:40:58.169Z,1.50
2019-03-01T15:43:29.771Z,1.87
2019-03-01T15:45:58.199Z,1.87
2019-03-01T15:48:27.073Z,1.70
2019-03-01T15:50:59.018Z,1.60
2019-03-01T15:53:26.768Z,1.77
2019-03-01T15:55:55.778Z,1.57
2019-03-01T15:58:24.637Z,1.90
2019-03-01T16:00:53.576Z,1.97
2019-03-01T16:03:22.529Z,8.20
2019-03-01T16:05:51.501Z,3.87
2019-03-01T16:08:20.573Z,2.90
2019-03-01T16:10:49.643Z,3.83
2019-03-01T16:13:18.649Z,4.00
2019-03-01T16:15:47.585Z,3.17
2019-03-01T16:18:16.536Z,2.23
2019-03-01T16:20:47.208Z,2.03
2019-03-01T16:23:16.136Z,1.70
2019-03-01T16:25:45.155Z,1.60
2019-03-01T16:28:14.765Z,1.80
2019-03-01T16:30:43.889Z,2.30
2019-03-01T16:33:12.860Z,3.50
2019-03-01T16:35:41.725Z,5.17
2019-03-01T16:38:12.229Z,3.47
2019-03-01T16:40:41.186Z,2.80
2019-03-01T16:43:12.553Z,2.30
2019-03-01T16:45:41.567Z,2.50
2019-03-01T16:48:13.581Z,2.03
2019-03-01T16:50:44.026Z,2.20
2019-03-01T16:53:11.909Z,2.00
2019-03-01T16:55:40.857Z,2.20
2019-03-01T16:58:09.716Z,3.50
2019-03-01T17:00:38.769Z,5.93
2019-03-01T17:03:07.829Z,3.10
2019-03-01T17:05:38.788Z,3.63
2019-03-01T17:08:10.946Z,5.97
2019-03-01T17:10:41.981Z,8.70
2019-03-01T17:13:11.004Z,4.97
2019-03-01T17:15:39.942Z,10.50
2019-03-01T17:18:12.271Z,6.50
2019-03-01T17:20:40.333Z,5.97
2019-03-01T17:23:11.355Z,3.70
2019-03-01T17:25:40.260Z,5.40
2019-03-01T17:28:09.208Z,7.13
2019-03-01T17:30:38.464Z,4.83
2019-03-01T17:33:09.708Z,4.67
2019-03-01T17:35:41.073Z,3.97
2019-03-01T17:38:08.945Z,4.27
2019-03-01T17:40:37.917Z,3.30
2019-03-01T17:43:06.918Z,5.17
2019-03-01T17:45:35.873Z,4.27
2019-03-01T17:48:04.806Z,3.23
2019-03-01T17:50:33.840Z,3.60
2019-03-01T17:53:06.258Z,3.80
2019-03-01T17:55:37.584Z,4.23
2019-03-01T17:58:09.126Z,4.80
2019-03-01T18:00:39.031Z,3.50
2019-03-01T18:03:07.973Z,4.17
2019-03-01T18:05:40.211Z,4.17
2019-03-01T18:08:07.614Z,4.30
2019-03-01T18:10:36.678Z,4.13
2019-03-01T18:13:05.625Z,4.00
2019-03-01T18:15:34.647Z,5.10
2019-03-01T18:18:03.644Z,6.20
2019-03-01T18:20:33.891Z,5.27
2019-03-01T18:23:03.308Z,5.47
2019-03-01T18:25:32.253Z,6.63
2019-03-01T18:28:01.205Z,7.93
2019-03-01T18:30:30.172Z,8.57
2019-03-01T18:32:59.216Z,12.30
2019-03-01T18:35:28.230Z,5.73
2019-03-01T18:37:57.090Z,6.10
2019-03-01T18:40:26.017Z,7.10
2019-03-01T18:42:54.880Z,12.53
2019-03-01T18:45:23.881Z,10.07
2019-03-01T18:47:52.820Z,6.90
2019-03-01T18:50:27.646Z,5.67
2019-03-01T18:52:54.931Z,7.17
2019-03-01T18:55:24.041Z,6.30
2019-03-01T18:57:52.972Z,6.10
2019-03-01T19:00:32.416Z,4.03
2019-03-01T19:03:04.442Z,5.00
2019-03-01T19:05:31.998Z,4.97
2019-03-01T19:08:04.522Z,4.70
2019-03-01T19:10:31.847Z,4.77
2019-03-01T19:13:00.739Z,4.10
2019-03-01T19:15:29.691Z,3.80
2019-03-01T19:17:58.659Z,3.87
2019-03-01T19:20:27.819Z,3.73
2019-03-01T19:22:56.828Z,5.60
2019-03-01T19:25:26.549Z,4.50
2019-03-01T19:27:55.548Z,5.07
2019-03-01T19:30:24.577Z,4.17
2019-03-01T19:32:53.700Z,4.97
2019-03-01T19:35:28.584Z,4.53
2019-03-01T19:37:53.530Z,5.20
2019-03-01T19:40:22.583Z,4.37
2019-03-01T19:42:51.607Z,5.27
2019-03-01T19:45:20.553Z,5.97
2019-03-01T19:47:49.546Z,6.23
2019-03-01T19:50:21.809Z,4.30
2019-03-01T19:52:51.227Z,5.90
2019-03-01T19:55:20.633Z,4.53
2019-03-01T19:57:49.589Z,5.47
2019-03-01T20:00:20.521Z,8.03
2019-03-01T20:02:49.465Z,5.57
2019-03-01T20:05:20.355Z,6.50
2019-03-01T20:07:51.762Z,6.13
2019-03-01T20:33:29.226Z,7.50
2019-03-01T20:40:26.721Z,6.17
2019-03-01T20:43:07.171Z,10.13
2019-03-01T20:46:08.930Z,9.73
2019-03-01T20:52:11.554Z,8.30
2019-03-01T20:55:10.049Z,8.53
2019-03-01T21:02:13.100Z,7.13
2019-03-01T21:08:38.832Z,9.33
2019-03-01T21:11:21.774Z,9.57
2019-03-01T21:13:51.592Z,9.13
2019-03-01T21:16:24.155Z,9.30
2019-03-01T21:18:56.244Z,9.47
2019-03-01T21:21:28.930Z,9.93
2019-03-01T21:23:58.569Z,10.13
2019-03-01T21:26:28.358Z,8.73
2019-03-01T21:29:17.068Z,9.47
2019-03-01T21:31:52.745Z,12.13
2019-03-01T21:34:46.213Z,12.07
2019-03-01T21:37:46.214Z,13.13
2019-03-01T21:40:16.402Z,10.77
2019-03-01T21:43:03.839Z,10.57
2019-03-01T21:45:37.044Z,9.23
2019-03-01T21:48:09.685Z,9.30
2019-03-01T21:50:51.618Z,11.70
2019-03-01T21:56:39.586Z,12.07
2019-03-01T21:59:17.306Z,10.80
2019-03-01T22:01:46.454Z,10.63
2019-03-01T22:04:20.597Z,11.53
2019-03-01T22:06:56.055Z,11.70
2019-03-01T22:09:25.667Z,17.27
2019-03-01T22:11:58.742Z,12.87
2019-03-01T22:14:33.014Z,12.50
2019-03-01T22:17:05.482Z,14.57
2019-03-01T22:19:39.302Z,13.23
2019-03-01T22:22:16.974Z,14.07
2019-03-01T22:24:47.541Z,14.13
2019-03-01T22:27:21.518Z,12.97
2019-03-01T22:29:53.549Z,13.20
2019-03-01T22:32:25.457Z,16.37
2019-03-01T22:34:54.576Z,13.37
2019-03-01T22:37:28.476Z,13.30
2019-03-01T22:40:01.139Z,14.90
2019-03-01T22:42:34.278Z,14.07
2019-03-01T22:45:10.366Z,14.30
2019-03-01T22:47:59.316Z,14.03
2019-03-01T22:50:30.034Z,13.37
2019-03-01T22:53:03.236Z,13.53
2019-03-01T22:55:36.800Z,14.17
2019-03-01T22:58:15.229Z,13.57
2019-03-01T23:01:34.936Z,13.17
2019-03-01T23:04:06.376Z,13.73
2019-03-01T23:06:35.754Z,12.77
2019-03-01T23:09:33.632Z,13.83
2019-03-01T23:12:04.653Z,13.67
2019-03-01T23:14:40.222Z,12.43
2019-03-01T23:17:10.911Z,13.70
2019-03-01T23:19:41.326Z,12.23
2019-03-01T23:22:12.893Z,12.70
2019-03-01T23:24:43.881Z,12.63
2019-03-01T23:27:13.257Z,13.90
2019-03-01T23:29:42.378Z,13.33
2019-03-01T23:32:39.898Z,12.60
2019-03-01T23:35:06.672Z,12.23
2019-03-01T23:37:38.909Z,12.20
2019-03-01T23:40:13.071Z,11.77
2019-03-01T23:42:42.106Z,12.33
2019-03-01T23:45:13.718Z,11.03
2019-03-01T23:47:44.225Z,12.27
2019-03-01T23:50:13.556Z,11.63
2019-03-01T23:52:42.727Z,12.20
2019-03-01T23:55:15.653Z,11.83
2019-03-01T23:57:48.856Z,11.47
